Time,TemperatureF,DewpointF,PressureIn,WindDirection,WindDirectionDegrees,WindSpeedMPH,WindSpeedGustMPH,Humidity,HourlyPrecipIn,Conditions,Clouds,dailyrainin,SolarRadiationWatts/m^2,SoftwareType,DateUTC
2013-06-16 00:11:00,66.3,50.0,29.73,ENE,70,7.0,8.0,57,0.00,,,0.00,0,weatherlink.com 1.10,2013-06-16 06:11:00,
2013-06-16 00:26:00,65.6,51.0,29.74,North,5,11.0,12.0,59,0.00,,,0.00,0,weatherlink.com 1.10,2013-06-16 06:26:00,
2013-06-16 00:41:00,65.0,51.0,29.73,NNE,13,1.0,6.0,60,0.00,,,0.00,0,weatherlink.com 1.10,2013-06-16 06:41:00,
2013-06-16 00:56:00,64.7,51.0,29.74,NNE,13,0.0,3.0,61,0.00,,,0.00,0,weatherlink.com 1.10,2013-06-16 06:56:00,
2013-06-16 01:11:00,64.1,51.0,29.73,West,277,1.0,4.0,63,0.00,,,0.00,0,weatherlink.com 1.10,2013-06-16 07:11:00,
2013-06-16 01:26:00,63.7,51.0,29.73,West,278,5.0,8.0,63,0.00,,,0.00,0,weatherlink.com 1.10,2013-06-16 07:26:00,
2013-06-16 01:41:00,63.1,51.0,29.73,WNW,295,0.0,4.0,64,0.00,,,0.00,0,weatherlink.com 1.10,2013-06-16 07:41:00,
2013-06-16 01:56:00,62.8,50.0,29.73,WNW,290,4.0,5.0,64,0.00,,,0.00,0,weatherlink.com 1.10,2013-06-16 07:56:00,
2013-06-16 02:11:00,62.5,51.0,29.73,WNW,288,6.0,6.0,66,0.00,,,0.00,0,weatherlink.com 1.10,2013-06-16 08:11:00,
2013-06-16 02:26:00,61.8,51.0,29.73,NE,43,1.0,4.0,67,0.00,,,0.00,0,weatherlink.com 1.10,2013-06-16 08:26:00,
2013-06-16 02:41:00,61.4,51.0,29.74,ENE,78,0.0,2.0,68,0.00,,,0.00,0,weatherlink.com 1.10,2013-06-16 08:41:00,
2013-06-16 02:56:00,61.0,51.0,29.74,West,281,3.0,5.0,70,0.00,,,0.00,0,weatherlink.com 1.10,2013-06-16 08:56:00,
2013-06-16 03:11:00,60.4,50.0,29.74,West,280,0.0,4.0,69,0.00,,,0.00,0,weatherlink.com 1.10,2013-06-16 09:11:00,
2013-06-16 03:26:00,60.1,50.0,29.74,West,280,0.0,1.0,70,0.00,,,0.00,0,weatherlink.com 1.10,2013-06-16 09:26:00,
2013-06-16 03:41:00,59.7,50.0,29.74,WNW,284,1.0,3.0,71,0.00,,,0.00,0,weatherlink.com 1.10,2013-06-16 09:41:00,
2013-06-16 03:56:00,58.9,49.0,29.74,East,82,0.0,5.0,71,0.00,,,0.00,0,weatherlink.com 1.10,2013-06-16 09:56:00,
2013-06-16 04:11:00,59.3,50.0,29.75,South,190,3.0,4.0,71,0.00,,,0.00,0,weatherlink.com 1.10,2013-06-16 10:11:00,
2013-06-16 04:26:00,59.5,51.0,29.74,SW,226,2.0,5.0,73,0.00,,,0.00,0,weatherlink.com 1.10,2013-06-16 10:26:00,
2013-06-16 04:41:00,59.8,48.0,29.74,WSW,244,5.0,6.0,65,0.00,,,0.00,0,weatherlink.com 1.10,2013-06-16 10:41:00,
2013-06-16 04:56:00,60.2,48.0,29.74,West,275,5.0,5.0,64,0.00,,,0.00,0,weatherlink.com 1.10,2013-06-16 10:56:00,
2013-06-16 05:11:00,59.1,48.0,29.74,West,259,4.0,4.0,66,0.00,,,0.00,0,weatherlink.com 1.10,2013-06-16 11:11:00,
2013-06-16 05:26:00,60.7,47.0,29.74,SSW,202,0.0,5.0,60,0.00,,,0.00,0,weatherlink.com 1.10,2013-06-16 11:26:00,
2013-06-16 05:41:00,62.3,45.0,29.74,West,262,2.0,8.0,53,0.00,,,0.00,9,weatherlink.com 1.10,2013-06-16 11:41:00,
2013-06-16 05:56:00,58.6,48.0,29.75,East,91,5.0,8.0,69,0.00,,,0.00,25,weatherlink.com 1.10,2013-06-16 11:56:00,
2013-06-16 06:11:00,57.9,49.0,29.75,East,80,0.0,3.0,72,0.00,,,0.00,54,weatherlink.com 1.10,2013-06-16 12:11:00,
2013-06-16 06:26:00,58.6,48.0,29.75,NNW,331,4.0,7.0,68,0.00,,,0.00,97,weatherlink.com 1.10,2013-06-16 12:26:00,
2013-06-16 06:41:00,60.2,49.0,29.75,NW,306,0.0,3.0,66,0.00,,,0.00,148,weatherlink.com 1.10,2013-06-16 12:41:00,
2013-06-16 06:56:00,61.5,49.0,29.76,WNW,291,4.0,5.0,63,0.00,,,0.00,197,weatherlink.com 1.10,2013-06-16 12:56:00,
2013-06-16 07:12:00,63.7,48.0,29.76,WNW,294,2.0,5.0,56,0.00,,,0.00,237,weatherlink.com 1.10,2013-06-16 13:12:00,
2013-06-16 07:27:00,65.4,48.0,29.76,WNW,294,0.0,2.0,54,0.00,,,0.00,285,weatherlink.com 1.10,2013-06-16 13:27:00,
2013-06-16 07:42:00,66.7,48.0,29.76,WNW,294,1.0,3.0,52,0.00,,,0.00,334,weatherlink.com 1.10,2013-06-16 13:42:00,
2013-06-16 07:57:00,68.4,48.0,29.76,North,355,0.0,6.0,49,0.00,,,0.00,385,weatherlink.com 1.10,2013-06-16 13:57:00,
2013-06-16 08:12:00,69.7,50.0,29.76,ENE,76,0.0,3.0,49,0.00,,,0.00,418,weatherlink.com 1.10,2013-06-16 14:12:00,
2013-06-16 08:27:00,70.1,49.0,29.76,ESE,104,0.0,4.0,48,0.00,,,0.00,492,weatherlink.com 1.10,2013-06-16 14:27:00,
2013-06-16 08:42:00,70.6,51.0,29.76,East,88,3.0,6.0,50,0.00,,,0.00,575,weatherlink.com 1.10,2013-06-16 14:42:00,
2013-06-16 08:57:00,71.9,53.0,29.76,ENE,70,0.0,6.0,52,0.00,,,0.00,649,weatherlink.com 1.10,2013-06-16 14:57:00,
2013-06-16 09:12:00,73.1,52.0,29.76,SE,141,1.0,4.0,47,0.00,,,0.00,568,weatherlink.com 1.10,2013-06-16 15:12:00,
2013-06-16 09:27:00,73.4,52.0,29.75,ENE,67,0.0,3.0,48,0.00,,,0.00,629,weatherlink.com 1.10,2013-06-16 15:27:00,
2013-06-16 09:42:00,74.8,51.0,29.75,SSW,200,0.0,6.0,43,0.00,,,0.00,846,weatherlink.com 1.10,2013-06-16 15:42:00,
2013-06-16 09:57:00,74.0,49.0,29.74,SSE,157,3.0,4.0,42,0.00,,,0.00,603,weatherlink.com 1.10,2013-06-16 15:57:00,
2013-06-16 10:12:00,76.7,49.0,29.74,ESE,111,4.0,5.0,38,0.00,,,0.00,738,weatherlink.com 1.10,2013-06-16 16:12:00,
2013-06-16 10:27:00,78.6,48.0,29.73,East,94,5.0,6.0,34,0.00,,,0.00,837,weatherlink.com 1.10,2013-06-16 16:27:00,
2013-06-16 10:42:00,79.8,47.0,29.73,ESE,114,1.0,6.0,31,0.00,,,0.00,856,weatherlink.com 1.10,2013-06-16 16:42:00,
2013-06-16 10:57:00,81.2,44.0,29.72,NE,49,0.0,12.0,27,0.00,,,0.00,895,weatherlink.com 1.10,2013-06-16 16:57:00,
2013-06-16 11:12:00,83.7,33.0,29.72,NNE,17,9.0,15.0,16,0.00,,,0.00,812,weatherlink.com 1.10,2013-06-16 17:12:00,
2013-06-16 11:27:00,82.6,29.0,29.72,NNW,346,11.0,20.0,14,0.00,,,0.00,278,weatherlink.com 1.10,2013-06-16 17:27:00,
2013-06-16 11:42:00,81.6,30.0,29.72,NNE,14,6.0,17.0,15,0.00,,,0.00,272,weatherlink.com 1.10,2013-06-16 17:42:00,
2013-06-16 11:57:00,81.2,29.0,29.72,North,355,10.0,16.0,15,0.00,,,0.00,171,weatherlink.com 1.10,2013-06-16 17:57:00,
2013-06-16 12:12:00,80.3,30.0,29.72,NNW,333,11.0,15.0,16,0.00,,,0.00,56,weatherlink.com 1.10,2013-06-16 18:12:00,
2013-06-16 12:28:00,78.4,33.0,29.76,WSW,251,13.0,24.0,19,0.00,,,0.00,37,weatherlink.com 1.10,2013-06-16 18:28:00,
2013-06-16 12:43:00,72.1,41.0,29.76,SSW,209,8.0,24.0,33,0.00,,,0.00,74,weatherlink.com 1.10,2013-06-16 18:43:00,
2013-06-16 12:58:00,72.2,41.0,29.77,SSW,196,14.0,19.0,32,0.00,,,0.00,97,weatherlink.com 1.10,2013-06-16 18:58:00,
2013-06-16 13:13:00,70.7,44.0,29.79,SSE,159,9.0,14.0,38,0.00,,,0.00,86,weatherlink.com 1.10,2013-06-16 19:13:00,
2013-06-16 13:28:00,72.6,40.0,29.82,WSW,240,17.0,26.0,31,0.00,,,0.00,135,weatherlink.com 1.10,2013-06-16 19:28:00,
2013-06-16 13:43:00,73.2,40.0,29.82,West,265,8.0,23.0,30,0.00,,,0.00,320,weatherlink.com 1.10,2013-06-16 19:43:00,
2013-06-16 13:58:00,73.4,41.0,29.81,SSE,166,3.0,11.0,31,0.00,,,0.00,471,weatherlink.com 1.10,2013-06-16 19:58:00,
2013-06-16 14:13:00,74.2,41.0,29.81,SSW,203,5.0,13.0,30,0.00,,,0.00,534,weatherlink.com 1.10,2013-06-16 20:13:00,
2013-06-16 14:28:00,73.9,43.0,29.80,SE,128,4.0,9.0,33,0.00,,,0.00,680,weatherlink.com 1.10,2013-06-16 20:28:00,
2013-06-16 14:43:00,76.1,41.0,29.80,North,351,12.0,12.0,28,0.00,,,0.00,601,weatherlink.com 1.10,2013-06-16 20:43:00,
2013-06-16 14:58:00,78.6,42.0,29.78,North,355,14.0,20.0,27,0.00,,,0.00,902,weatherlink.com 1.10,2013-06-16 20:58:00,
2013-06-16 15:13:00,76.3,41.0,29.77,North,5,16.0,27.0,28,0.00,,,0.00,445,weatherlink.com 1.10,2013-06-16 21:13:00,
2013-06-16 15:28:00,77.1,42.0,29.76,North,360,20.0,21.0,29,0.00,,,0.00,865,weatherlink.com 1.10,2013-06-16 21:28:00,
2013-06-16 15:43:00,77.6,42.0,29.75,North,355,13.0,22.0,28,0.00,,,0.00,803,weatherlink.com 1.10,2013-06-16 21:43:00,
2013-06-16 15:58:00,77.9,42.0,29.74,NNE,32,13.0,20.0,28,0.00,,,0.00,782,weatherlink.com 1.10,2013-06-16 21:58:00,
2013-06-16 16:13:00,77.8,41.0,29.74,NE,40,5.0,14.0,27,0.00,,,0.00,671,weatherlink.com 1.10,2013-06-16 22:13:00,
2013-06-16 16:28:00,78.5,42.0,29.74,NE,53,4.0,12.0,27,0.00,,,0.00,469,weatherlink.com 1.10,2013-06-16 22:28:00,
2013-06-16 16:43:00,76.3,40.0,29.75,SE,138,11.0,11.0,27,0.00,,,0.00,251,weatherlink.com 1.10,2013-06-16 22:43:00,
2013-06-16 16:58:00,75.4,41.0,29.75,SE,130,5.0,12.0,29,0.00,,,0.00,373,weatherlink.com 1.10,2013-06-16 22:58:00,
2013-06-16 17:13:00,74.8,41.0,29.75,East,94,6.0,13.0,30,0.00,,,0.00,353,weatherlink.com 1.10,2013-06-16 23:13:00,
2013-06-16 17:28:00,75.4,43.0,29.73,SSW,203,8.0,10.0,32,0.00,,,0.00,510,weatherlink.com 1.10,2013-06-16 23:28:00,
2013-06-16 17:43:00,75.8,43.0,29.73,SSE,163,2.0,13.0,31,0.00,,,0.00,461,weatherlink.com 1.10,2013-06-16 23:43:00,
2013-06-16 17:58:00,76.1,42.0,29.73,SSE,157,1.0,8.0,30,0.00,,,0.00,366,weatherlink.com 1.10,2013-06-16 23:58:00,
2013-06-16 18:13:00,75.8,42.0,29.73,SE,146,4.0,6.0,30,0.00,,,0.00,171,weatherlink.com 1.10,2013-06-17 00:13:00,
2013-06-16 18:28:00,75.1,42.0,29.74,SSW,192,1.0,5.0,30,0.00,,,0.00,69,weatherlink.com 1.10,2013-06-17 00:28:00,
2013-06-16 18:43:00,74.3,43.0,29.74,SW,229,6.0,7.0,32,0.00,,,0.00,39,weatherlink.com 1.10,2013-06-17 00:43:00,
2013-06-16 18:58:00,73.3,36.0,29.75,West,266,16.0,32.0,26,0.00,,,0.00,77,weatherlink.com 1.10,2013-06-17 00:58:00,
2013-06-16 19:13:00,72.2,36.0,29.72,South,190,7.0,17.0,27,0.00,,,0.00,105,weatherlink.com 1.10,2013-06-17 01:13:00,
2013-06-16 19:28:00,73.1,37.0,29.73,SW,218,9.0,11.0,27,0.00,,,0.00,139,weatherlink.com 1.10,2013-06-17 01:28:00,
2013-06-16 19:43:00,72.8,37.0,29.74,SW,232,12.0,20.0,27,0.00,,,0.00,90,weatherlink.com 1.10,2013-06-17 01:43:00,
2013-06-16 19:58:00,71.8,37.0,29.74,SW,233,8.0,15.0,28,0.00,,,0.00,44,weatherlink.com 1.10,2013-06-17 01:58:00,
2013-06-16 20:13:00,71.4,37.0,29.74,WSW,256,4.0,14.0,28,0.00,,,0.00,19,weatherlink.com 1.10,2013-06-17 02:13:00,
2013-06-16 20:28:00,71.3,36.0,29.73,NW,325,3.0,11.0,28,0.00,,,0.00,9,weatherlink.com 1.10,2013-06-17 02:28:00,
2013-06-16 20:43:00,71.3,36.0,29.74,NNE,19,5.0,6.0,28,0.00,,,0.00,0,weatherlink.com 1.10,2013-06-17 02:43:00,
2013-06-16 20:58:00,70.7,37.0,29.74,NNE,20,3.0,12.0,29,0.00,,,0.00,0,weatherlink.com 1.10,2013-06-17 02:58:00,
2013-06-16 21:13:00,70.0,38.0,29.75,North,9,2.0,9.0,31,0.00,,,0.00,0,weatherlink.com 1.10,2013-06-17 03:13:00,
2013-06-16 21:28:00,69.1,39.0,29.75,South,186,4.0,5.0,34,0.00,,,0.00,0,weatherlink.com 1.10,2013-06-17 03:28:00,
2013-06-16 21:43:00,67.9,40.0,29.76,South,175,1.0,6.0,36,0.00,,,0.00,0,weatherlink.com 1.10,2013-06-17 03:43:00,
2013-06-16 21:58:00,67.5,39.0,29.77,SE,128,1.0,5.0,35,0.00,,,0.00,0,weatherlink.com 1.10,2013-06-17 03:58:00,
2013-06-16 22:13:00,67.9,40.0,29.76,West,262,4.0,4.0,36,0.00,,,0.00,0,weatherlink.com 1.10,2013-06-17 04:13:00,
2013-06-16 22:28:00,64.8,38.0,29.77,West,270,4.0,8.0,38,0.00,,,0.00,0,weatherlink.com 1.10,2013-06-17 04:28:00,
2013-06-16 22:43:00,64.6,37.0,29.77,West,273,0.0,6.0,36,0.00,,,0.00,0,weatherlink.com 1.10,2013-06-17 04:43:00,
2013-06-16 22:58:00,64.1,37.0,29.78,West,273,0.0,1.0,37,0.00,,,0.00,0,weatherlink.com 1.10,2013-06-17 04:58:00,
2013-06-16 23:13:00,62.3,39.0,29.79,West,277,0.0,1.0,42,0.00,,,0.00,0,weatherlink.com 1.10,2013-06-17 05:13:00,
2013-06-16 23:29:00,61.4,39.0,29.79,WNW,294,3.0,6.0,44,0.00,,,0.00,0,weatherlink.com 1.10,2013-06-17 05:29:00,
2013-06-16 23:44:00,62.1,39.0,29.79,WSW,253,0.0,4.0,43,0.00,,,0.00,0,weatherlink.com 1.10,2013-06-17 05:44:00,
2013-06-16 23:59:00,61.6,38.0,29.79,WSW,254,1.0,2.0,42,0.00,,,0.00,0,weatherlink.com 1.10,2013-06-17 05:59:00,